createdAt,value
2023-02-05T00:00:44.895Z,2.30
2023-02-05T00:03:11.498Z,2.35
2023-02-05T00:05:38.272Z,1.80
2023-02-05T00:08:05.267Z,1.67
2023-02-05T00:10:31.896Z,1.80
2023-02-05T00:12:58.616Z,1.90
2023-02-05T00:15:25.207Z,2.05
2023-02-05T00:17:51.746Z,1.80
2023-02-05T00:20:19.162Z,2.17
2023-02-05T00:22:45.764Z,1.95
2023-02-05T00:25:12.450Z,1.90
2023-02-05T00:27:39.005Z,2.20
2023-02-05T00:30:06.144Z,2.13
2023-02-05T00:32:32.674Z,1.60
2023-02-05T00:34:59.291Z,2.42
2023-02-05T00:37:25.950Z,2.53
2023-02-05T00:39:52.560Z,1.75
2023-02-05T00:42:19.103Z,2.50
2023-02-05T00:44:45.713Z,2.17
2023-02-05T00:47:12.269Z,2.83
2023-02-05T00:49:39.463Z,2.20
2023-02-05T00:52:06.063Z,2.20
2023-02-05T00:54:32.789Z,2.00
2023-02-05T00:56:59.380Z,2.10
2023-02-05T00:59:26.096Z,2.45
2023-02-05T01:01:52.725Z,2.70
2023-02-05T01:04:20.579Z,1.88
2023-02-05T01:06:47.545Z,2.08
2023-02-05T01:09:14.149Z,2.28
2023-02-05T01:11:40.732Z,1.63
2023-02-05T01:14:07.289Z,2.20
2023-02-05T01:16:33.879Z,2.33
2023-02-05T01:19:00.617Z,2.08
2023-02-05T01:21:27.394Z,2.40
2023-02-05T01:23:54.905Z,2.08
2023-02-05T01:26:21.638Z,1.90
2023-02-05T01:28:48.550Z,1.60
2023-02-05T01:31:16.043Z,2.15
2023-02-05T01:33:42.866Z,1.80
2023-02-05T01:36:09.796Z,1.85
2023-02-05T01:38:36.589Z,1.70
2023-02-05T01:41:03.238Z,2.00
2023-02-05T01:43:29.905Z,1.80
2023-02-05T01:46:19.181Z,2.20
2023-02-05T01:48:50.829Z,2.20
2023-02-05T01:51:17.938Z,1.52
2023-02-05T01:53:48.454Z,1.48
2023-02-05T01:56:19.785Z,2.20
2023-02-05T01:58:52.592Z,1.75
2023-02-05T02:01:19.809Z,1.85
2023-02-05T02:03:48.098Z,1.75
2023-02-05T02:06:14.926Z,1.50
2023-02-05T02:08:41.442Z,1.85
2023-02-05T02:11:12.836Z,1.77
2023-02-05T02:13:41.575Z,1.80
2023-02-05T02:16:09.211Z,2.50
2023-02-05T02:18:38.092Z,2.10
2023-02-05T02:21:07.799Z,2.10
2023-02-05T02:23:49.293Z,1.95
2023-02-05T02:26:53.718Z,1.13
2023-02-05T02:29:35.760Z,1.70
2023-02-05T02:34:44.981Z,1.33
2023-02-05T02:37:20.813Z,1.70
2023-02-05T02:40:01.888Z,1.25
2023-02-05T02:42:41.004Z,1.67
2023-02-05T02:45:10.513Z,1.58
2023-02-05T02:47:56.208Z,1.67
2023-02-05T02:50:34.769Z,1.30
2023-02-05T02:53:24.420Z,1.67
2023-02-05T02:55:54.675Z,1.10
2023-02-05T02:58:31.329Z,1.30
2023-02-05T03:01:00.332Z,1.30
2023-02-05T03:03:32.846Z,1.60
2023-02-05T03:06:03.945Z,1.20
2023-02-05T03:08:42.280Z,1.60
2023-02-05T03:11:13.411Z,1.30
2023-02-05T03:13:44.073Z,1.67
2023-02-05T03:16:12.818Z,2.17
2023-02-05T03:18:39.963Z,1.17
2023-02-05T03:21:17.175Z,1.40
2023-02-05T03:23:44.699Z,1.98
2023-02-05T03:26:30.026Z,1.77
2023-02-05T03:29:11.729Z,1.92
2023-02-05T03:32:05.842Z,1.45
2023-02-05T03:34:48.487Z,1.20
2023-02-05T03:37:44.503Z,1.60
2023-02-05T03:40:35.954Z,1.70
2023-02-05T03:43:11.153Z,1.88
2023-02-05T03:45:57.174Z,2.10
2023-02-05T03:48:45.744Z,1.55
2023-02-05T03:51:22.586Z,1.40
2023-02-05T03:54:05.510Z,1.45
2023-02-05T03:56:32.748Z,1.77
2023-02-05T03:59:01.366Z,1.52
2023-02-05T04:01:28.895Z,1.77
2023-02-05T04:03:55.815Z,1.52
2023-02-05T04:06:23.350Z,1.75
2023-02-05T04:08:53.051Z,1.83
2023-02-05T04:11:19.642Z,1.58
2023-02-05T04:13:47.274Z,1.30
2023-02-05T04:16:14.692Z,1.88
2023-02-05T04:18:41.385Z,1.20
2023-02-05T04:21:08.311Z,1.20
2023-02-05T04:23:38.537Z,1.80
2023-02-05T04:26:05.934Z,1.67
2023-02-05T04:28:39.053Z,1.42
2023-02-05T04:31:08.485Z,1.48
2023-02-05T04:33:35.769Z,1.30
2023-02-05T04:36:02.406Z,1.10
2023-02-05T04:38:29.351Z,1.05
2023-02-05T04:40:56.749Z,1.58
2023-02-05T04:43:23.346Z,2.13
2023-02-05T04:45:50.565Z,1.80
2023-02-05T04:48:17.723Z,1.05
2023-02-05T04:50:44.382Z,1.40
2023-02-05T04:53:10.961Z,1.40
2023-02-05T04:55:37.484Z,1.48
2023-02-05T04:58:04.257Z,1.73
2023-02-05T05:00:30.997Z,1.60
2023-02-05T05:02:58.202Z,1.50
2023-02-05T05:05:24.909Z,1.30
2023-02-05T05:07:51.741Z,1.40
2023-02-05T05:10:18.455Z,1.45
2023-02-05T05:12:44.965Z,1.40
2023-02-05T05:15:11.599Z,1.58
2023-02-05T05:17:38.225Z,1.73
2023-02-05T05:20:05.177Z,1.60
2023-02-05T05:22:31.776Z,2.17
2023-02-05T05:24:58.415Z,1.20
2023-02-05T05:27:24.987Z,1.38
2023-02-05T05:29:51.811Z,1.90
2023-02-05T05:32:18.447Z,1.65
2023-02-05T05:34:45.175Z,1.85
2023-02-05T05:37:11.737Z,1.40
2023-02-05T05:39:56.896Z,1.75
2023-02-05T05:42:42.188Z,1.40
2023-02-05T05:45:09.125Z,1.55
2023-02-05T05:47:35.820Z,2.10
2023-02-05T05:50:02.459Z,1.55
2023-02-05T05:52:31.522Z,2.63
2023-02-05T05:54:59.041Z,1.20
2023-02-05T05:57:26.032Z,1.90
2023-02-05T05:59:52.913Z,1.88
2023-02-05T06:02:19.560Z,1.73
2023-02-05T06:04:46.347Z,2.00
2023-02-05T06:07:12.963Z,1.00
2023-02-05T06:09:39.677Z,1.80
2023-02-05T06:12:06.707Z,1.55
2023-02-05T06:14:33.395Z,1.50
2023-02-05T06:16:59.977Z,1.20
2023-02-05T06:19:26.711Z,1.65
2023-02-05T06:21:53.297Z,1.70
2023-02-05T06:24:19.971Z,1.52
2023-02-05T06:26:46.514Z,1.20
2023-02-05T06:29:13.088Z,1.30
2023-02-05T06:31:39.751Z,1.63
2023-02-05T06:34:06.498Z,1.73
2023-02-05T06:36:33.202Z,1.67
2023-02-05T06:38:59.929Z,1.90
2023-02-05T06:41:26.535Z,2.35
2023-02-05T06:43:53.095Z,2.58
2023-02-05T06:46:19.653Z,2.55
2023-02-05T06:48:46.375Z,2.70
2023-02-05T06:51:13.576Z,2.67
2023-02-05T06:53:40.416Z,2.53
2023-02-05T06:56:07.227Z,2.72
2023-02-05T06:58:33.871Z,2.53
2023-02-05T07:01:01.536Z,2.75
2023-02-05T07:03:28.226Z,2.17
2023-02-05T07:05:54.949Z,2.85
2023-02-05T07:08:24.424Z,2.40
2023-02-05T07:10:51.004Z,2.72
2023-02-05T07:13:17.566Z,2.55
2023-02-05T07:15:44.422Z,2.78
2023-02-05T07:18:11.219Z,2.53
2023-02-05T07:20:37.918Z,2.35
2023-02-05T07:23:05.609Z,3.47
2023-02-05T07:25:38.170Z,2.63
2023-02-05T07:28:07.889Z,2.47
2023-02-05T07:30:36.014Z,2.45
2023-02-05T07:33:03.598Z,2.67
2023-02-05T07:35:31.948Z,2.35
2023-02-05T07:37:59.258Z,2.22
2023-02-05T07:40:26.012Z,2.83
2023-02-05T07:42:52.578Z,2.20
2023-02-05T07:45:19.163Z,2.10
2023-02-05T07:47:45.826Z,2.33
2023-02-05T07:50:12.471Z,2.05
2023-02-05T07:52:39.101Z,2.58
2023-02-05T07:55:06.002Z,2.78
2023-02-05T07:57:32.718Z,3.10
2023-02-05T07:59:59.259Z,3.05
2023-02-05T08:02:25.942Z,2.40
2023-02-05T08:04:52.820Z,2.55
2023-02-05T08:07:19.400Z,2.58
2023-02-05T08:09:46.024Z,2.42
2023-02-05T08:12:12.868Z,2.55
2023-02-05T08:14:39.405Z,2.80
2023-02-05T08:17:06.439Z,2.47
2023-02-05T08:19:33.132Z,3.80
2023-02-05T08:21:59.774Z,3.22
2023-02-05T08:24:26.474Z,3.38
2023-02-05T08:26:53.030Z,2.85
2023-02-05T08:29:19.632Z,2.38
2023-02-05T08:31:46.346Z,2.40
2023-02-05T08:34:13.194Z,2.05
2023-02-05T08:36:39.905Z,2.13
2023-02-05T08:39:06.503Z,2.08
2023-02-05T08:41:33.255Z,2.08
2023-02-05T08:43:59.784Z,2.15
2023-02-05T08:46:31.572Z,2.67
2023-02-05T08:49:04.097Z,1.65
2023-02-05T08:51:31.330Z,2.15
2023-02-05T08:53:57.963Z,2.47
2023-02-05T08:56:24.502Z,2.97
2023-02-05T08:58:51.172Z,2.47
2023-02-05T09:01:18.206Z,2.83
2023-02-05T09:03:45.356Z,2.17
2023-02-05T09:06:14.942Z,2.38
2023-02-05T09:08:41.987Z,2.05
2023-02-05T09:11:08.776Z,5.80
2023-02-05T09:13:35.971Z,4.25
2023-02-05T09:16:02.616Z,2.42
2023-02-05T09:18:29.166Z,5.30
2023-02-05T09:20:55.792Z,2.97
2023-02-05T09:23:22.838Z,3.60
2023-02-05T09:25:49.412Z,2.70
2023-02-05T09:28:16.231Z,2.17
2023-02-05T09:30:45.046Z,2.28
2023-02-05T09:33:12.775Z,2.47
2023-02-05T09:35:39.403Z,2.53
2023-02-05T09:38:06.091Z,2.75
2023-02-05T09:40:39.489Z,2.65
2023-02-05T09:43:45.026Z,2.42
2023-02-05T09:46:56.682Z,2.28
2023-02-05T09:49:32.480Z,2.10
2023-02-05T09:52:23.999Z,2.90
2023-02-05T09:54:54.707Z,2.90
2023-02-05T09:57:40.762Z,2.25
2023-02-05T10:00:23.995Z,2.70
2023-02-05T10:03:01.350Z,2.25
2023-02-05T10:05:37.487Z,1.98
2023-02-05T10:08:06.800Z,2.08
2023-02-05T10:10:39.318Z,2.05
2023-02-05T10:13:40.421Z,2.00
2023-02-05T10:16:07.043Z,2.20
2023-02-05T10:18:58.264Z,2.63
2023-02-05T10:22:00.481Z,2.20
2023-02-05T10:27:20.952Z,2.03
2023-02-05T10:29:59.861Z,1.60
2023-02-05T10:32:50.369Z,1.77
2023-02-05T10:35:35.708Z,2.30
2023-02-05T10:38:08.574Z,1.83
2023-02-05T10:40:40.075Z,2.30
2023-02-05T10:43:42.995Z,2.70
2023-02-05T10:46:13.304Z,2.25
2023-02-05T10:48:47.207Z,1.63
2023-02-05T10:51:38.036Z,1.63
2023-02-05T10:54:05.123Z,2.03
2023-02-05T10:56:32.378Z,2.45
2023-02-05T10:59:01.199Z,1.48
2023-02-05T11:01:37.248Z,2.05
2023-02-05T11:04:08.138Z,2.15
2023-02-05T11:06:53.271Z,1.95
2023-02-05T11:09:26.590Z,1.35
2023-02-05T11:12:04.819Z,1.58
2023-02-05T11:14:37.465Z,1.85
2023-02-05T11:17:24.549Z,1.88
2023-02-05T11:19:54.366Z,1.80
2023-02-05T11:22:34.428Z,1.75
2023-02-05T11:25:06.651Z,1.60
2023-02-05T11:27:35.320Z,1.52
2023-02-05T11:30:50.487Z,1.73
2023-02-05T11:33:24.392Z,1.75
2023-02-05T11:36:05.694Z,1.40
2023-02-05T11:38:45.839Z,1.55
2023-02-05T11:41:27.497Z,1.50
2023-02-05T11:43:55.582Z,1.08
2023-02-05T11:46:24.637Z,1.60
2023-02-05T11:49:04.823Z,1.40
2023-02-05T11:51:44.690Z,1.75
2023-02-05T11:54:22.751Z,1.67
2023-02-05T11:57:30.991Z,1.92
2023-02-05T11:59:58.755Z,1.38
2023-02-05T12:02:30.879Z,1.55
2023-02-05T12:05:00.948Z,1.50
2023-02-05T12:07:34.593Z,1.52
2023-02-05T12:10:01.397Z,1.70
2023-02-05T12:12:44.866Z,1.73
2023-02-05T12:15:24.765Z,1.90
2023-02-05T12:18:32.470Z,0.90
2023-02-05T12:21:00.112Z,1.40
2023-02-05T12:24:04.114Z,1.60
2023-02-05T12:26:35.045Z,1.67
2023-02-05T12:29:08.977Z,1.20
2023-02-05T12:31:47.212Z,1.23
2023-02-05T12:34:29.463Z,1.98
2023-02-05T12:37:14.697Z,1.10
2023-02-05T12:39:44.530Z,1.20
2023-02-05T12:42:25.066Z,1.45
2023-02-05T12:45:29.117Z,1.10
2023-02-05T12:47:58.770Z,1.20
2023-02-05T12:50:34.706Z,1.10
2023-02-05T12:53:15.245Z,1.23
2023-02-05T12:56:21.719Z,1.73
2023-02-05T12:58:56.206Z,1.60
2023-02-05T13:01:32.098Z,1.85
2023-02-05T13:04:01.582Z,2.20
2023-02-05T13:06:40.233Z,1.80
2023-02-05T13:09:15.705Z,1.45
2023-02-05T13:12:10.665Z,1.30
2023-02-05T13:15:00.421Z,1.50
2023-02-05T13:17:29.545Z,2.25
2023-02-05T13:20:00.468Z,1.55
2023-02-05T13:22:54.444Z,1.70
2023-02-05T13:26:02.649Z,1.95
2023-02-05T13:28:42.211Z,1.80
2023-02-05T13:31:14.895Z,2.75
2023-02-05T13:33:43.700Z,2.10
2023-02-05T13:36:46.792Z,3.40
2023-02-05T13:39:51.219Z,2.13
2023-02-05T13:42:50.250Z,1.80
2023-02-05T13:45:20.774Z,1.58
2023-02-05T13:47:53.526Z,1.60
2023-02-05T13:50:41.517Z,1.80
2023-02-05T13:53:39.421Z,2.00
2023-02-05T13:56:31.055Z,1.92
2023-02-05T13:59:01.541Z,1.65
2023-02-05T14:01:34.531Z,2.70
2023-02-05T14:04:20.144Z,2.20
2023-02-05T14:07:08.756Z,1.98
2023-02-05T14:09:42.971Z,2.60
2023-02-05T14:12:22.408Z,2.33
2023-02-05T14:15:20.144Z,1.75
2023-02-05T14:17:46.759Z,1.98
2023-02-05T14:20:26.136Z,2.15
2023-02-05T14:22:57.986Z,2.03
2023-02-05T14:28:20.493Z,2.20
2023-02-05T14:30:57.130Z,2.33
2023-02-05T14:33:43.654Z,2.70
2023-02-05T14:36:22.936Z,2.38
2023-02-05T14:39:23.416Z,2.67
2023-02-05T14:41:55.649Z,2.08
2023-02-05T14:44:24.415Z,2.80
2023-02-05T14:46:57.928Z,2.05
2023-02-05T14:49:38.970Z,2.83
2023-02-05T14:52:24.121Z,2.30
2023-02-05T14:54:57.369Z,3.30
2023-02-05T14:57:29.538Z,2.95
2023-02-05T15:00:00.172Z,2.50
2023-02-05T15:03:05.368Z,2.97
2023-02-05T15:05:37.911Z,2.13
2023-02-05T15:08:13.593Z,2.95
2023-02-05T15:10:55.111Z,2.45
2023-02-05T15:13:22.964Z,2.28
2023-02-05T15:16:12.545Z,2.10
2023-02-05T15:18:51.110Z,3.03
2023-02-05T15:21:25.097Z,3.20
2023-02-05T15:24:00.229Z,3.47
2023-02-05T15:26:46.203Z,2.28
2023-02-05T15:29:23.821Z,2.65
2023-02-05T15:31:57.773Z,3.03
2023-02-05T15:34:27.876Z,2.00
2023-02-05T15:37:02.621Z,3.10
2023-02-05T15:39:50.524Z,2.40
2023-02-05T15:42:20.423Z,2.03
2023-02-05T15:44:47.145Z,2.28
2023-02-05T15:47:21.353Z,2.35
2023-02-05T15:49:51.829Z,2.03
2023-02-05T15:52:29.989Z,2.13
2023-02-05T15:55:00.743Z,2.20
2023-02-05T15:57:32.120Z,3.95
2023-02-05T16:00:00.816Z,2.78
2023-02-05T16:02:29.523Z,2.65
2023-02-05T16:05:03.853Z,2.75
2023-02-05T16:08:08.933Z,2.50
2023-02-05T16:10:36.127Z,2.38
2023-02-05T16:13:21.232Z,1.73
2023-02-05T16:15:50.837Z,2.70
2023-02-05T16:18:50.933Z,2.08
2023-02-05T16:21:25.043Z,2.72
2023-02-05T16:24:05.758Z,2.30
2023-02-05T16:26:36.555Z,3.17
2023-02-05T16:29:11.730Z,2.75
2023-02-05T16:31:47.356Z,2.70
2023-02-05T16:34:21.562Z,2.47
2023-02-05T16:36:50.303Z,3.20
2023-02-05T16:39:29.227Z,3.20
2023-02-05T16:42:07.939Z,4.88
2023-02-05T16:44:37.539Z,4.45
2023-02-05T16:47:19.946Z,3.28
2023-02-05T16:49:48.217Z,3.42
2023-02-05T16:52:30.768Z,3.80
2023-02-05T16:54:58.958Z,3.50
2023-02-05T16:57:32.557Z,3.60
2023-02-05T17:00:25.151Z,3.63
2023-02-05T17:02:55.469Z,2.78
2023-02-05T17:05:33.405Z,6.68
2023-02-05T17:08:04.726Z,16.45
2023-02-05T17:10:32.358Z,12.80
2023-02-05T17:13:00.869Z,4.75
2023-02-05T17:15:34.578Z,3.38
2023-02-05T17:18:17.843Z,5.45
2023-02-05T17:20:46.067Z,6.20
2023-02-05T17:23:17.237Z,5.53
2023-02-05T17:25:52.486Z,6.95
2023-02-05T17:28:25.551Z,4.20
2023-02-05T17:30:54.197Z,4.80
2023-02-05T17:33:23.513Z,3.65
2023-02-05T17:35:50.713Z,3.95
2023-02-05T17:38:18.052Z,5.45
2023-02-05T17:40:44.808Z,6.63
2023-02-05T17:43:11.377Z,4.82
2023-02-05T17:45:40.371Z,4.93
2023-02-05T17:48:08.075Z,4.68
2023-02-05T17:50:37.551Z,3.75
2023-02-05T17:53:04.472Z,2.97
2023-02-05T17:55:31.249Z,2.97
2023-02-05T17:57:57.771Z,3.17
2023-02-05T18:00:27.527Z,4.20
2023-02-05T18:02:54.549Z,9.05
2023-02-05T18:05:22.297Z,6.30
2023-02-05T18:07:57.919Z,3.22
2023-02-05T18:10:27.569Z,3.15
2023-02-05T18:12:56.074Z,2.75
2023-02-05T18:15:24.073Z,2.78
2023-02-05T18:18:53.087Z,3.13
2023-02-05T18:20:59.207Z,3.90
2023-02-05T18:23:29.038Z,4.70
2023-02-05T18:25:57.271Z,3.45
2023-02-05T18:28:24.610Z,4.47
2023-02-05T18:31:05.520Z,5.97
2023-02-05T18:33:32.625Z,4.50
2023-02-05T18:36:04.160Z,3.92
2023-02-05T18:38:31.776Z,4.68
2023-02-05T18:41:12.279Z,4.70
2023-02-05T18:43:39.547Z,5.20
2023-02-05T18:46:08.507Z,4.78
2023-02-05T18:48:35.985Z,4.35
2023-02-05T18:51:10.058Z,3.20
2023-02-05T18:53:40.440Z,3.50
2023-02-05T18:56:16.041Z,3.42
2023-02-05T18:58:44.119Z,5.45
2023-02-05T19:01:20.598Z,4.13
2023-02-05T19:03:47.989Z,3.47
2023-02-05T19:06:17.182Z,3.67
2023-02-05T19:08:44.224Z,3.60
2023-02-05T19:11:16.833Z,2.70
2023-02-05T19:13:43.417Z,3.60
2023-02-05T19:16:13.162Z,4.70
2023-02-05T19:18:41.586Z,3.95
2023-02-05T19:21:14.746Z,4.10
2023-02-05T19:23:43.230Z,4.78
2023-02-05T19:26:13.952Z,3.80
2023-02-05T19:28:41.643Z,4.65
2023-02-05T19:31:10.546Z,4.43
2023-02-05T19:33:38.526Z,4.38
2023-02-05T19:36:07.413Z,3.90
2023-02-05T19:38:39.283Z,3.13
2023-02-05T19:41:12.711Z,4.57
2023-02-05T19:43:40.597Z,4.05
2023-02-05T19:46:08.308Z,4.50
2023-02-05T19:48:35.759Z,4.55
2023-02-05T19:51:07.552Z,4.57
2023-02-05T19:56:14.288Z,2.35
2023-02-05T19:58:43.237Z,3.20
2023-02-05T20:01:21.998Z,3.72
2023-02-05T20:03:48.567Z,3.75
2023-02-05T20:06:16.953Z,3.85
2023-02-05T20:08:44.937Z,4.68
2023-02-05T20:11:12.319Z,4.07
2023-02-05T20:13:40.987Z,4.57
2023-02-05T20:16:11.952Z,4.75
2023-02-05T20:18:40.021Z,4.55
2023-02-05T20:21:07.916Z,4.22
2023-02-05T20:23:34.754Z,4.53
2023-02-05T20:26:04.289Z,4.13
2023-02-05T20:28:32.515Z,3.35
2023-02-05T20:31:17.844Z,2.17
2023-02-05T20:33:44.629Z,3.10
2023-02-05T20:36:12.804Z,2.65
2023-02-05T20:38:40.101Z,3.17
2023-02-05T20:41:14.910Z,2.72
2023-02-05T20:43:41.537Z,2.78
2023-02-05T20:46:10.642Z,2.88
2023-02-05T20:48:38.321Z,3.72
2023-02-05T20:51:10.442Z,3.80
2023-02-05T20:53:38.061Z,3.97
2023-02-05T20:56:10.589Z,4.80
2023-02-05T20:58:37.436Z,4.13
2023-02-05T21:01:07.839Z,3.65
2023-02-05T21:03:35.524Z,4.32
2023-02-05T21:06:02.510Z,5.00
2023-02-05T21:08:29.068Z,5.10
2023-02-05T21:10:55.898Z,4.78
2023-02-05T21:13:22.660Z,4.63
2023-02-05T21:15:58.029Z,3.78
2023-02-05T21:18:25.771Z,3.13
2023-02-05T21:20:52.665Z,2.88
2023-02-05T21:23:20.211Z,2.53
2023-02-05T21:25:47.491Z,3.63
2023-02-05T21:28:14.427Z,3.50
2023-02-05T21:30:42.947Z,3.10
2023-02-05T21:33:10.145Z,3.90
2023-02-05T21:35:38.730Z,3.42
2023-02-05T21:38:05.877Z,4.43
2023-02-05T21:40:33.298Z,4.22
2023-02-05T21:43:00.826Z,3.83
2023-02-05T21:45:27.854Z,3.50
2023-02-05T21:47:54.582Z,2.92
2023-02-05T21:50:21.324Z,3.67
2023-02-05T21:52:48.256Z,3.25
2023-02-05T21:55:15.039Z,4.32
2023-02-05T21:57:42.264Z,4.00
2023-02-05T22:00:09.510Z,3.85
2023-02-05T22:02:39.233Z,3.22
2023-02-05T22:05:06.480Z,4.22
2023-02-05T22:07:33.229Z,5.68
2023-02-05T22:09:59.754Z,4.97
2023-02-05T22:12:26.469Z,5.93
2023-02-05T22:14:53.285Z,5.15
2023-02-05T22:17:19.971Z,4.70
2023-02-05T22:19:46.495Z,4.50
2023-02-05T22:22:13.309Z,4.60
2023-02-05T22:24:40.112Z,4.95
2023-02-05T22:27:06.928Z,5.10
2023-02-05T22:29:33.598Z,5.13
2023-02-05T22:32:00.305Z,5.38
2023-02-05T22:34:27.711Z,5.38
2023-02-05T22:36:54.956Z,6.13
2023-02-05T22:39:21.502Z,5.93
2023-02-05T22:41:48.120Z,5.43
2023-02-05T22:44:15.006Z,6.47
2023-02-05T22:46:43.648Z,6.43
2023-02-05T22:49:12.040Z,6.50
2023-02-05T22:51:39.764Z,6.45
2023-02-05T22:54:10.222Z,6.85
2023-02-05T22:56:37.924Z,6.38
2023-02-05T22:59:04.621Z,6.13
2023-02-05T23:01:33.998Z,7.00
2023-02-05T23:04:02.532Z,5.90
2023-02-05T23:06:32.226Z,6.47
2023-02-05T23:09:18.351Z,6.35
2023-02-05T23:11:45.893Z,6.47
2023-02-05T23:14:14.905Z,6.18
2023-02-05T23:16:44.090Z,5.80
2023-02-05T23:19:15.938Z,5.05
2023-02-05T23:24:10.620Z,4.70
2023-02-05T23:26:44.221Z,5.47
2023-02-05T23:29:13.860Z,6.13
2023-02-05T23:31:40.810Z,5.45
2023-02-05T23:34:07.525Z,5.85
2023-02-05T23:36:34.422Z,5.60
2023-02-05T23:39:01.042Z,5.88
2023-02-05T23:41:37.546Z,5.05
2023-02-05T23:44:14.319Z,5.35
2023-02-05T23:46:42.708Z,5.03
2023-02-05T23:49:09.564Z,5.60
2023-02-05T23:51:36.357Z,5.50
2023-02-05T23:54:03.898Z,5.50
2023-02-05T23:56:31.227Z,5.68
2023-02-05T23:58:59.038Z,5.07
